createdAt,value
2023-03-03T00:01:55.899Z,6.20
2023-03-03T00:04:42.850Z,6.00
2023-03-03T00:07:29.941Z,6.00
2023-03-03T00:10:17.243Z,6.00
2023-03-03T00:13:04.712Z,6.00
2023-03-03T00:15:53.947Z,6.00
2023-03-03T00:18:44.736Z,5.90
2023-03-03T00:21:34.676Z,5.70
2023-03-03T00:24:24.841Z,5.50
2023-03-03T00:27:33.215Z,5.40
2023-03-03T00:30:28.518Z,5.40
2023-03-03T00:33:33.968Z,5.40
2023-03-03T00:36:31.065Z,5.40
2023-03-03T00:39:36.671Z,5.40
2023-03-03T00:42:24.495Z,5.40
2023-03-03T00:45:36.226Z,5.20
2023-03-03T00:48:26.714Z,5.10
2023-03-03T00:51:25.531Z,5.00
2023-03-03T00:54:12.909Z,4.90
2023-03-03T00:57:00.227Z,4.90
2023-03-03T00:59:47.614Z,4.90
2023-03-03T01:02:35.012Z,4.80
2023-03-03T01:05:22.568Z,4.80
2023-03-03T01:08:09.817Z,4.90
2023-03-03T01:10:59.779Z,4.80
2023-03-03T01:13:48.389Z,4.80
2023-03-03T01:16:35.884Z,4.70
2023-03-03T01:19:23.174Z,4.70
2023-03-03T01:22:10.660Z,4.70
2023-03-03T01:25:00.160Z,4.70
2023-03-03T01:27:46.652Z,4.60
2023-03-03T01:30:34.327Z,4.50
2023-03-03T01:33:24.974Z,4.40
2023-03-03T01:36:12.241Z,4.40
2023-03-03T01:38:59.434Z,4.30
2023-03-03T01:41:47.074Z,4.30
2023-03-03T01:44:35.047Z,4.20
2023-03-03T01:47:25.242Z,4.20
2023-03-03T01:50:15.587Z,4.10
2023-03-03T01:53:05.053Z,4.10
2023-03-03T01:55:53.825Z,4.10
2023-03-03T01:58:44.185Z,4.10
2023-03-03T02:01:33.740Z,4.10
2023-03-03T02:04:21.995Z,4.10
2023-03-03T02:07:11.557Z,4.10
2023-03-03T02:10:01.689Z,4.10
2023-03-03T02:12:55.120Z,4.10
2023-03-03T02:15:42.352Z,4.10
2023-03-03T02:18:30.174Z,4.00
2023-03-03T02:21:26.926Z,4.00
2023-03-03T02:24:26.547Z,3.90
2023-03-03T02:27:14.583Z,3.80
2023-03-03T02:30:10.198Z,3.70
2023-03-03T02:32:57.146Z,3.50
2023-03-03T02:35:44.684Z,3.20
2023-03-03T02:38:42.104Z,3.10
2023-03-03T02:41:41.765Z,3.10
2023-03-03T02:44:31.552Z,3.10
2023-03-03T02:47:18.818Z,2.90
2023-03-03T02:50:06.597Z,2.70
2023-03-03T02:52:54.047Z,2.50
2023-03-03T02:55:41.126Z,2.50
2023-03-03T02:58:28.459Z,2.40
2023-03-03T03:01:16.252Z,2.30
2023-03-03T03:04:04.727Z,2.20
2023-03-03T03:06:52.885Z,2.20
2023-03-03T03:09:40.439Z,2.40
2023-03-03T03:12:27.572Z,2.40
2023-03-03T03:15:15.947Z,2.40
2023-03-03T03:18:03.040Z,2.20
2023-03-03T03:20:50.537Z,2.00
2023-03-03T03:23:38.268Z,2.00
2023-03-03T03:26:25.866Z,2.00
2023-03-03T03:29:13.175Z,2.10
2023-03-03T03:32:00.381Z,2.10
2023-03-03T03:34:49.166Z,2.00
2023-03-03T03:37:36.104Z,1.90
2023-03-03T03:40:23.129Z,2.00
2023-03-03T03:43:10.552Z,2.10
2023-03-03T03:46:01.054Z,2.10
2023-03-03T03:48:48.406Z,2.10
2023-03-03T03:51:37.335Z,1.90
2023-03-03T03:54:25.095Z,2.00
2023-03-03T03:57:12.781Z,2.00
2023-03-03T04:00:00.100Z,1.80
2023-03-03T04:02:47.227Z,1.80
2023-03-03T04:05:34.865Z,1.70
2023-03-03T04:08:22.437Z,1.70
2023-03-03T04:11:09.893Z,1.80
2023-03-03T04:13:56.926Z,1.90
2023-03-03T04:16:44.331Z,1.90
2023-03-03T04:19:31.244Z,1.90
2023-03-03T04:22:18.418Z,1.90
2023-03-03T04:25:06.567Z,1.80
2023-03-03T04:27:54.306Z,1.70
2023-03-03T04:30:41.885Z,1.60
2023-03-03T04:33:28.839Z,1.50
2023-03-03T04:36:16.384Z,1.40
2023-03-03T04:39:04.803Z,1.30
2023-03-03T04:41:51.908Z,1.20
2023-03-03T04:44:39.229Z,1.10
2023-03-03T04:47:26.402Z,1.10
2023-03-03T04:50:13.779Z,1.20
2023-03-03T04:53:01.104Z,1.20
2023-03-03T04:55:50.039Z,1.30
2023-03-03T04:58:37.313Z,1.40
2023-03-03T05:03:48.781Z,1.40
2023-03-03T05:06:36.322Z,1.00
2023-03-03T05:09:23.821Z,1.10
2023-03-03T05:12:10.963Z,1.10
2023-03-03T05:14:58.560Z,1.20
2023-03-03T05:17:46.065Z,1.20
2023-03-03T05:20:33.429Z,1.20
2023-03-03T05:23:21.117Z,1.30
2023-03-03T05:26:08.251Z,1.30
2023-03-03T05:28:55.533Z,1.30
2023-03-03T05:31:45.443Z,1.40
2023-03-03T05:34:31.750Z,1.40
2023-03-03T05:37:18.765Z,1.30
2023-03-03T05:40:06.654Z,1.30
2023-03-03T05:42:54.249Z,1.30
2023-03-03T05:45:41.460Z,1.30
2023-03-03T05:48:28.915Z,1.30
2023-03-03T05:51:16.236Z,1.30
2023-03-03T05:54:03.634Z,1.20
2023-03-03T05:56:51.134Z,1.30
2023-03-03T05:59:38.953Z,1.30
2023-03-03T06:02:26.161Z,1.30
2023-03-03T06:05:13.787Z,1.30
2023-03-03T06:08:00.922Z,1.20
2023-03-03T06:10:48.560Z,0.90
2023-03-03T06:13:35.945Z,0.70
2023-03-03T06:16:23.058Z,0.60
2023-03-03T06:19:10.664Z,0.70
2023-03-03T06:22:00.610Z,0.70
2023-03-03T06:24:46.917Z,0.60
2023-03-03T06:27:35.124Z,0.60
2023-03-03T06:30:22.712Z,0.80
2023-03-03T06:33:10.283Z,0.70
2023-03-03T06:35:58.758Z,0.80
2023-03-03T06:38:45.997Z,0.90
2023-03-03T06:41:33.692Z,0.90
2023-03-03T06:44:21.134Z,0.90
2023-03-03T06:47:08.190Z,0.80
2023-03-03T06:49:55.517Z,0.80
2023-03-03T06:52:42.756Z,0.90
2023-03-03T06:55:29.805Z,1.00
2023-03-03T06:58:19.747Z,1.00
2023-03-03T07:01:10.461Z,1.10
2023-03-03T07:03:57.831Z,1.20
2023-03-03T07:06:45.046Z,1.30
2023-03-03T07:09:32.492Z,1.40
2023-03-03T07:12:22.722Z,1.60
2023-03-03T07:15:27.882Z,1.80
2023-03-03T07:18:29.979Z,2.00
2023-03-03T07:21:26.097Z,2.10
2023-03-03T07:24:30.952Z,2.30
2023-03-03T07:27:26.454Z,2.50
2023-03-03T07:30:19.547Z,2.60
2023-03-03T07:33:08.404Z,2.60
2023-03-03T07:35:58.086Z,2.60
2023-03-03T07:38:48.287Z,2.60
2023-03-03T07:41:36.169Z,2.60
2023-03-03T07:44:35.629Z,2.80
2023-03-03T07:47:34.221Z,2.80
2023-03-03T07:50:23.504Z,3.00
2023-03-03T07:53:25.938Z,3.00
2023-03-03T07:56:22.422Z,3.00
2023-03-03T07:59:26.835Z,3.00
2023-03-03T08:02:33.124Z,3.10
2023-03-03T08:05:38.197Z,3.20
2023-03-03T08:08:37.695Z,3.20
2023-03-03T08:11:27.600Z,3.30
2023-03-03T08:14:17.821Z,3.50
2023-03-03T08:17:24.468Z,3.60
2023-03-03T08:20:33.852Z,3.80
2023-03-03T08:23:22.386Z,3.80
2023-03-03T08:26:10.007Z,3.80
2023-03-03T08:28:57.086Z,3.90
2023-03-03T08:31:44.691Z,3.70
2023-03-03T08:34:31.780Z,3.70
2023-03-03T08:37:19.285Z,3.70
2023-03-03T08:40:07.382Z,3.70
2023-03-03T08:42:54.780Z,3.70
2023-03-03T08:45:45.615Z,3.90
2023-03-03T08:48:33.604Z,3.90
2023-03-03T08:51:20.864Z,3.90
2023-03-03T08:54:09.614Z,4.10
2023-03-03T08:56:56.780Z,4.30
2023-03-03T08:59:43.784Z,4.30
2023-03-03T09:02:31.032Z,4.60
2023-03-03T09:05:20.754Z,5.00
2023-03-03T09:08:10.790Z,5.20
2023-03-03T09:10:58.193Z,5.10
2023-03-03T09:13:45.533Z,5.30
2023-03-03T09:16:38.694Z,5.20
2023-03-03T09:19:29.597Z,5.10
2023-03-03T09:22:19.937Z,5.30
2023-03-03T09:25:10.324Z,5.60
2023-03-03T09:27:58.298Z,5.80
2023-03-03T09:30:48.504Z,6.20
2023-03-03T09:33:47.494Z,6.60
2023-03-03T09:36:38.829Z,6.60
2023-03-03T09:39:29.664Z,6.70
2023-03-03T09:42:22.544Z,7.20
2023-03-03T09:45:35.946Z,7.40
2023-03-03T09:48:31.910Z,8.20
2023-03-03T09:51:31.210Z,8.20
2023-03-03T09:54:54.677Z,8.30
2023-03-03T09:58:10.961Z,8.20
2023-03-03T10:01:12.774Z,7.80
2023-03-03T10:04:21.780Z,7.80
2023-03-03T10:07:31.931Z,8.00
2023-03-03T10:10:27.876Z,8.70
2023-03-03T10:13:18.214Z,8.50
2023-03-03T10:16:20.018Z,8.40
2023-03-03T10:19:15.506Z,8.20
2023-03-03T10:22:24.317Z,8.80
2023-03-03T10:25:33.845Z,9.00
2023-03-03T10:28:53.762Z,8.90
2023-03-03T10:31:53.146Z,8.60
2023-03-03T10:34:52.288Z,8.80
2023-03-03T10:37:51.063Z,8.90
2023-03-03T10:40:41.428Z,9.50
2023-03-03T10:43:37.809Z,10.30
2023-03-03T10:46:46.251Z,10.80
2023-03-03T10:50:00.316Z,11.30
2023-03-03T10:52:56.145Z,11.00
2023-03-03T10:56:11.086Z,10.30
2023-03-03T10:59:04.149Z,10.00
2023-03-03T11:01:59.843Z,10.10
2023-03-03T11:05:07.977Z,10.00
2023-03-03T11:08:07.291Z,9.80
2023-03-03T11:11:12.525Z,9.70
2023-03-03T11:14:20.612Z,10.00
2023-03-03T11:17:13.491Z,10.30
2023-03-03T11:20:04.694Z,10.20
2023-03-03T11:23:14.201Z,9.80
2023-03-03T11:26:10.767Z,10.60
2023-03-03T11:29:24.662Z,10.80
2023-03-03T11:32:17.742Z,10.90
2023-03-03T11:35:10.636Z,11.10
2023-03-03T11:38:12.564Z,10.80
2023-03-03T11:41:05.635Z,10.60
2023-03-03T11:43:58.496Z,9.90
2023-03-03T11:46:51.322Z,10.10
2023-03-03T11:49:47.691Z,10.20
2023-03-03T11:52:49.867Z,10.30
2023-03-03T11:55:39.271Z,10.80
2023-03-03T11:58:34.829Z,11.40
2023-03-03T12:01:31.218Z,11.20
2023-03-03T12:04:32.516Z,11.60
2023-03-03T12:07:42.291Z,12.50
2023-03-03T12:10:32.797Z,12.80
2023-03-03T12:13:31.792Z,12.60
2023-03-03T12:16:21.889Z,12.40
2023-03-03T12:19:29.883Z,12.60
2023-03-03T12:22:38.193Z,12.40
2023-03-03T12:25:40.266Z,11.30
2023-03-03T12:28:39.784Z,11.40
2023-03-03T12:31:29.868Z,12.40
2023-03-03T12:34:26.138Z,12.30
2023-03-03T12:37:16.224Z,11.90
2023-03-03T12:40:12.429Z,12.00
2023-03-03T12:43:14.678Z,12.30
2023-03-03T12:46:28.457Z,12.60
2023-03-03T12:49:12.225Z,13.40
2023-03-03T12:52:02.642Z,14.20
2023-03-03T12:54:58.237Z,12.40
2023-03-03T12:57:51.562Z,12.30
2023-03-03T13:01:02.848Z,12.40
2023-03-03T13:04:25.912Z,12.80
2023-03-03T13:07:34.486Z,12.50
2023-03-03T13:10:42.882Z,11.70
2023-03-03T13:13:42.001Z,12.00
2023-03-03T13:16:41.564Z,11.40
2023-03-03T13:19:35.951Z,11.20
2023-03-03T13:22:38.018Z,11.60
2023-03-03T13:25:58.522Z,11.90
2023-03-03T13:28:54.213Z,12.60
2023-03-03T13:31:50.312Z,12.10
2023-03-03T13:34:46.566Z,12.30
2023-03-03T13:37:45.949Z,11.80
2023-03-03T13:40:49.031Z,12.10
2023-03-03T13:43:51.345Z,12.00
2023-03-03T13:46:44.614Z,11.50
2023-03-03T13:49:40.516Z,12.10
2023-03-03T13:52:36.583Z,12.70
2023-03-03T13:55:33.031Z,12.80
2023-03-03T13:58:45.909Z,13.20
2023-03-03T14:01:36.439Z,12.50
2023-03-03T14:04:29.551Z,12.20
2023-03-03T14:07:25.824Z,12.40
2023-03-03T14:10:21.951Z,12.30
2023-03-03T14:13:18.166Z,12.00
2023-03-03T14:16:26.300Z,12.00
2023-03-03T14:19:28.148Z,12.40
2023-03-03T14:22:26.208Z,12.80
2023-03-03T14:25:16.085Z,13.10
2023-03-03T14:28:14.038Z,13.00
2023-03-03T14:31:04.548Z,13.20
2023-03-03T14:34:11.148Z,12.90
2023-03-03T14:37:04.189Z,13.30
2023-03-03T14:40:11.155Z,13.60
2023-03-03T14:43:05.272Z,13.80
2023-03-03T14:45:55.256Z,13.90
2023-03-03T14:48:53.773Z,13.80
2023-03-03T14:51:49.913Z,13.60
2023-03-03T14:54:39.482Z,13.20
2023-03-03T14:57:43.757Z,13.10
2023-03-03T15:00:36.666Z,12.70
2023-03-03T15:03:26.432Z,12.60
2023-03-03T15:06:16.537Z,12.40
2023-03-03T15:09:22.797Z,12.00
2023-03-03T15:12:36.946Z,11.90
2023-03-03T15:15:27.297Z,11.70
2023-03-03T15:18:16.764Z,11.50
2023-03-03T15:21:13.057Z,11.30
2023-03-03T15:24:24.215Z,11.30
2023-03-03T15:27:17.124Z,11.40
2023-03-03T15:30:22.419Z,11.50
2023-03-03T15:33:30.630Z,11.60
2023-03-03T15:36:46.424Z,11.70
2023-03-03T15:39:59.385Z,11.50
2023-03-03T15:42:55.294Z,11.50
2023-03-03T15:46:05.225Z,11.40
2023-03-03T15:49:04.639Z,11.50
2023-03-03T15:52:03.377Z,11.30
2023-03-03T15:55:16.066Z,11.20
2023-03-03T15:58:15.182Z,11.20
2023-03-03T16:01:20.103Z,11.10
2023-03-03T16:04:13.154Z,10.90
2023-03-03T16:07:26.772Z,10.80
2023-03-03T16:10:31.936Z,10.80
2023-03-03T16:13:25.237Z,10.80
2023-03-03T16:16:33.542Z,10.90
2023-03-03T16:19:41.584Z,10.70
2023-03-03T16:23:00.023Z,10.60
2023-03-03T16:26:05.336Z,10.50
2023-03-03T16:29:04.777Z,10.50
2023-03-03T16:31:55.144Z,10.40
2023-03-03T16:35:00.761Z,10.50
2023-03-03T16:38:09.030Z,10.30
2023-03-03T16:41:01.688Z,10.00
2023-03-03T16:44:03.663Z,9.80
2023-03-03T16:46:51.279Z,9.70
2023-03-03T16:49:47.499Z,9.50
2023-03-03T16:52:40.622Z,9.40
2023-03-03T16:55:30.662Z,9.30
2023-03-03T16:58:41.547Z,9.20
2023-03-03T17:01:40.476Z,9.10
2023-03-03T17:04:45.901Z,8.90
2023-03-03T17:07:39.103Z,8.90
2023-03-03T17:10:32.350Z,8.80
2023-03-03T17:13:28.256Z,8.70
2023-03-03T17:16:42.824Z,8.60
2023-03-03T17:19:44.596Z,8.60
2023-03-03T17:22:49.348Z,8.60
2023-03-03T17:25:51.082Z,8.50
2023-03-03T17:29:01.528Z,8.50
2023-03-03T17:31:54.619Z,8.20
2023-03-03T17:34:44.811Z,8.10
2023-03-03T17:37:40.943Z,8.10
2023-03-03T17:40:33.743Z,8.00
2023-03-03T17:43:26.431Z,7.90
2023-03-03T17:46:25.108Z,7.80
2023-03-03T17:49:36.287Z,7.60
2023-03-03T17:52:51.157Z,7.60
2023-03-03T17:56:07.735Z,7.50
2023-03-03T17:59:03.255Z,7.40
2023-03-03T18:02:02.013Z,7.30
2023-03-03T18:05:16.236Z,7.20
2023-03-03T18:08:08.965Z,7.20
2023-03-03T18:11:10.990Z,7.20
2023-03-03T18:14:36.104Z,7.00
2023-03-03T18:17:29.674Z,6.90
2023-03-03T18:20:25.892Z,6.80
2023-03-03T18:23:35.045Z,6.80
2023-03-03T18:26:30.924Z,6.80
2023-03-03T18:29:29.203Z,6.80
2023-03-03T18:32:22.656Z,6.80
2023-03-03T18:35:33.779Z,6.80
2023-03-03T18:38:26.690Z,6.80
2023-03-03T18:41:16.030Z,6.80
2023-03-03T18:44:05.907Z,6.80
2023-03-03T18:46:54.982Z,6.70
2023-03-03T18:50:05.041Z,6.70
2023-03-03T18:53:13.189Z,6.70
2023-03-03T18:56:02.495Z,6.60
2023-03-03T18:58:51.802Z,6.40
2023-03-03T19:01:44.906Z,6.40
2023-03-03T19:04:35.324Z,6.30
2023-03-03T19:07:30.466Z,6.20
2023-03-03T19:10:23.238Z,6.20
2023-03-03T19:13:31.763Z,6.10
2023-03-03T19:16:29.738Z,6.00
2023-03-03T19:19:19.227Z,5.70
2023-03-03T19:22:26.686Z,5.60
2023-03-03T19:25:17.098Z,5.50
2023-03-03T19:28:19.029Z,5.30
2023-03-03T19:31:09.533Z,5.10
2023-03-03T19:34:06.313Z,5.00
2023-03-03T19:37:11.438Z,4.90
2023-03-03T19:40:18.445Z,4.80
2023-03-03T19:43:17.902Z,4.70
2023-03-03T19:46:26.110Z,4.60
2023-03-03T19:49:37.017Z,4.50
2023-03-03T19:52:57.430Z,4.40
2023-03-03T19:55:59.798Z,4.20
2023-03-03T19:59:22.028Z,4.10
2023-03-03T20:02:18.333Z,3.90
2023-03-03T20:05:21.071Z,3.80
2023-03-03T20:08:13.733Z,3.70
2023-03-03T20:11:12.681Z,3.60
2023-03-03T20:14:08.804Z,3.50
2023-03-03T20:16:58.342Z,3.40
2023-03-03T20:20:09.156Z,3.40
2023-03-03T20:23:04.233Z,3.40
2023-03-03T20:26:15.209Z,3.30
2023-03-03T20:29:23.380Z,3.30
2023-03-03T20:32:28.852Z,3.30
2023-03-03T20:35:50.519Z,3.20
2023-03-03T20:38:49.514Z,3.10
2023-03-03T20:42:05.069Z,3.20
2023-03-03T20:44:57.570Z,3.10
2023-03-03T20:48:02.665Z,3.20
2023-03-03T20:50:55.569Z,3.20
2023-03-03T20:54:11.235Z,3.10
2023-03-03T20:57:19.322Z,3.10
2023-03-03T21:00:18.230Z,3.10
2023-03-03T21:03:25.067Z,3.10
2023-03-03T21:06:20.886Z,3.00
2023-03-03T21:09:08.154Z,3.10
2023-03-03T21:11:55.507Z,3.20
2023-03-03T21:14:42.579Z,3.20
2023-03-03T21:17:32.186Z,3.20
2023-03-03T21:20:31.093Z,3.20
2023-03-03T21:23:20.349Z,3.20
2023-03-03T21:26:07.709Z,3.20
2023-03-03T21:29:03.435Z,3.20
2023-03-03T21:31:53.152Z,3.00
2023-03-03T21:34:42.041Z,2.90
2023-03-03T21:37:47.319Z,2.90
2023-03-03T21:40:34.161Z,2.90
2023-03-03T21:43:42.640Z,2.80
2023-03-03T21:46:30.091Z,2.70
2023-03-03T21:49:17.537Z,2.60
2023-03-03T21:52:05.388Z,2.40
2023-03-03T21:54:52.992Z,2.30
2023-03-03T21:57:40.210Z,2.40
2023-03-03T22:00:27.501Z,2.40
2023-03-03T22:03:16.807Z,2.40
2023-03-03T22:06:03.890Z,2.30
2023-03-03T22:08:50.961Z,2.30
2023-03-03T22:11:39.609Z,2.30
2023-03-03T22:14:26.808Z,2.30
2023-03-03T22:17:14.252Z,2.30
2023-03-03T22:20:01.565Z,2.20
2023-03-03T22:22:49.062Z,2.10
2023-03-03T22:25:36.322Z,2.10
2023-03-03T22:28:24.137Z,2.10
2023-03-03T22:31:11.332Z,2.10
2023-03-03T22:33:59.151Z,2.00
2023-03-03T22:36:46.708Z,2.00
2023-03-03T22:39:33.711Z,1.90
2023-03-03T22:42:20.916Z,1.90
2023-03-03T22:45:10.082Z,2.00
2023-03-03T22:47:57.392Z,1.90
2023-03-03T22:50:45.505Z,1.90
2023-03-03T22:53:32.471Z,1.90
2023-03-03T22:56:19.828Z,1.90
2023-03-03T22:59:07.405Z,1.90
2023-03-03T23:01:54.374Z,1.80
2023-03-03T23:04:41.453Z,1.80
2023-03-03T23:07:31.392Z,1.80
2023-03-03T23:10:19.416Z,1.80
2023-03-03T23:13:06.556Z,1.70
2023-03-03T23:15:55.843Z,1.70
2023-03-03T23:18:42.830Z,1.70
2023-03-03T23:21:30.265Z,1.70
2023-03-03T23:24:17.614Z,1.60
2023-03-03T23:27:04.938Z,1.60
2023-03-03T23:29:52.575Z,1.70
2023-03-03T23:32:40.163Z,1.80
2023-03-03T23:35:27.547Z,1.80
2023-03-03T23:38:16.618Z,1.80
2023-03-03T23:41:03.775Z,1.70
2023-03-03T23:43:50.988Z,1.60
2023-03-03T23:46:38.181Z,1.70
2023-03-03T23:49:25.474Z,1.70
2023-03-03T23:52:12.764Z,1.70
2023-03-03T23:54:59.987Z,1.60
2023-03-03T23:57:47.069Z,1.50
